createdAt,value
2019-02-16T00:00:25.362Z,10.07
2019-02-16T00:02:53.779Z,11.37
2019-02-16T00:05:22.181Z,10.17
2019-02-16T00:07:50.509Z,10.97
2019-02-16T00:10:19.162Z,10.40
2019-02-16T00:12:47.530Z,10.97
2019-02-16T00:15:17.033Z,10.13
2019-02-16T00:17:45.524Z,11.60
2019-02-16T00:20:14.069Z,11.27
2019-02-16T00:22:42.560Z,10.20
2019-02-16T00:25:10.967Z,11.80
2019-02-16T00:27:39.404Z,11.43
2019-02-16T00:30:08.241Z,10.00
2019-02-16T00:32:36.720Z,11.20
2019-02-16T00:35:05.808Z,9.93
2019-02-16T00:37:34.457Z,10.93
2019-02-16T00:40:04.622Z,10.37
2019-02-16T00:42:33.233Z,11.27
2019-02-16T00:45:01.722Z,10.10
2019-02-16T00:47:30.126Z,11.67
2019-02-16T00:49:58.564Z,10.07
2019-02-16T00:52:27.315Z,11.07
2019-02-16T00:54:55.720Z,10.67
2019-02-16T00:57:24.114Z,10.47
2019-02-16T00:59:52.443Z,10.30
2019-02-16T01:02:21.128Z,10.60
2019-02-16T01:04:49.508Z,10.70
2019-02-16T01:07:18.105Z,10.33
2019-02-16T01:09:46.820Z,10.33
2019-02-16T01:12:15.262Z,10.73
2019-02-16T01:14:43.738Z,10.40
2019-02-16T01:17:31.510Z,12.10
2019-02-16T01:19:59.924Z,10.10
2019-02-16T01:22:28.523Z,11.40
2019-02-16T01:24:56.873Z,10.93
2019-02-16T01:27:25.234Z,10.70
2019-02-16T01:29:53.796Z,11.33
2019-02-16T01:32:22.114Z,10.07
2019-02-16T01:34:50.870Z,11.03
2019-02-16T01:37:19.493Z,9.43
2019-02-16T01:39:48.075Z,10.07
2019-02-16T01:42:16.523Z,11.20
2019-02-16T01:44:45.229Z,10.33
2019-02-16T01:47:13.539Z,9.77
2019-02-16T01:49:41.964Z,10.07
2019-02-16T01:52:10.636Z,10.20
2019-02-16T01:54:39.061Z,9.63
2019-02-16T01:57:07.415Z,11.60
2019-02-16T01:59:35.756Z,10.67
2019-02-16T02:02:04.235Z,11.10
2019-02-16T02:04:32.748Z,10.20
2019-02-16T02:07:01.137Z,11.03
2019-02-16T02:09:29.682Z,11.20
2019-02-16T02:11:58.011Z,10.00
2019-02-16T02:14:26.820Z,10.37
2019-02-16T02:16:55.374Z,9.83
2019-02-16T02:19:23.955Z,10.47
2019-02-16T02:21:52.590Z,9.90
2019-02-16T02:24:21.048Z,10.60
2019-02-16T02:26:49.395Z,10.00
2019-02-16T02:29:17.815Z,10.83
2019-02-16T02:31:47.771Z,10.23
2019-02-16T02:34:16.085Z,10.53
2019-02-16T02:36:44.770Z,9.63
2019-02-16T02:39:13.247Z,9.80
2019-02-16T02:41:41.627Z,10.30
2019-02-16T02:44:09.994Z,9.77
2019-02-16T02:46:38.318Z,11.43
2019-02-16T02:49:06.602Z,10.27
2019-02-16T02:51:35.161Z,11.43
2019-02-16T02:54:03.683Z,11.53
2019-02-16T02:56:33.743Z,10.73
2019-02-16T02:59:02.112Z,11.37
2019-02-16T03:01:30.522Z,12.33
2019-02-16T03:03:58.825Z,11.87
2019-02-16T03:06:33.448Z,11.73
2019-02-16T03:09:01.900Z,11.03
2019-02-16T03:11:30.390Z,11.03
2019-02-16T03:13:58.767Z,10.17
2019-02-16T03:16:27.153Z,11.63
2019-02-16T03:18:55.564Z,11.97
2019-02-16T03:21:23.993Z,11.17
2019-02-16T03:23:52.459Z,10.87
2019-02-16T03:26:26.790Z,11.27
2019-02-16T03:29:04.130Z,11.67
2019-02-16T03:32:03.190Z,9.53
2019-02-16T03:34:40.334Z,10.17
2019-02-16T03:37:45.450Z,12.20
2019-02-16T03:40:13.859Z,10.60
2019-02-16T03:42:42.561Z,11.77
2019-02-16T03:45:19.923Z,11.47
2019-02-16T03:47:48.263Z,11.10
2019-02-16T03:50:16.583Z,11.20
2019-02-16T03:52:45.252Z,11.47
2019-02-16T03:55:13.643Z,11.40
2019-02-16T03:57:42.868Z,11.80
2019-02-16T04:00:11.375Z,10.73
2019-02-16T04:02:39.749Z,10.70
2019-02-16T04:05:09.869Z,10.40
2019-02-16T04:07:38.198Z,11.07
2019-02-16T04:10:06.942Z,11.37
2019-02-16T04:12:35.383Z,11.50
2019-02-16T04:15:04.430Z,10.53
2019-02-16T04:17:32.960Z,10.90
2019-02-16T04:20:01.432Z,10.53
2019-02-16T04:22:29.845Z,11.27
2019-02-16T04:24:58.303Z,10.27
2019-02-16T04:27:26.670Z,11.40
2019-02-16T04:29:55.102Z,12.03
2019-02-16T04:32:23.459Z,10.97
2019-02-16T04:34:51.829Z,12.50
2019-02-16T04:37:39.673Z,11.53
2019-02-16T04:40:10.080Z,11.87
2019-02-16T04:42:38.435Z,11.67
2019-02-16T04:45:07.645Z,11.90
2019-02-16T04:47:36.129Z,12.57
2019-02-16T04:50:05.325Z,12.50
2019-02-16T04:52:35.156Z,12.00
2019-02-16T04:55:06.117Z,11.57
2019-02-16T04:57:34.822Z,12.07
2019-02-16T05:00:03.417Z,12.20
2019-02-16T05:02:31.691Z,12.27
2019-02-16T05:05:00.111Z,12.33
2019-02-16T05:07:28.695Z,12.23
2019-02-16T05:09:57.018Z,11.77
2019-02-16T05:12:25.360Z,11.13
2019-02-16T05:14:53.750Z,13.80
2019-02-16T05:17:22.178Z,13.20
2019-02-16T05:19:50.558Z,14.27
2019-02-16T05:22:19.204Z,13.97
2019-02-16T05:24:47.577Z,12.63
2019-02-16T05:27:16.991Z,13.27
2019-02-16T05:29:45.311Z,13.67
2019-02-16T05:32:13.713Z,13.10
2019-02-16T05:34:42.012Z,13.27
2019-02-16T05:37:10.674Z,12.63
2019-02-16T05:39:39.036Z,13.87
2019-02-16T05:42:08.428Z,13.07
2019-02-16T05:44:36.734Z,13.57
2019-02-16T05:47:05.062Z,13.00
2019-02-16T05:49:33.410Z,14.30
2019-02-16T05:52:01.882Z,14.20
2019-02-16T05:54:30.190Z,14.13
2019-02-16T05:56:58.563Z,15.80
2019-02-16T05:59:26.862Z,14.93
2019-02-16T06:01:55.174Z,15.30
2019-02-16T06:04:23.646Z,15.17
2019-02-16T06:06:51.986Z,15.13
2019-02-16T06:09:20.281Z,16.13
2019-02-16T06:11:48.755Z,15.67
2019-02-16T06:14:17.290Z,16.20
2019-02-16T06:16:45.656Z,15.23
2019-02-16T06:19:14.139Z,13.50
2019-02-16T06:21:42.450Z,13.80
2019-02-16T06:24:10.879Z,13.70
2019-02-16T06:26:39.697Z,12.27
2019-02-16T06:29:08.087Z,13.27
2019-02-16T06:31:36.376Z,14.23
2019-02-16T06:34:04.787Z,15.93
2019-02-16T06:36:35.008Z,14.07
2019-02-16T06:39:05.055Z,14.90
2019-02-16T06:41:33.707Z,14.20
2019-02-16T06:44:02.028Z,14.47
2019-02-16T06:46:32.031Z,11.43
2019-02-16T06:49:00.472Z,12.23
2019-02-16T06:51:28.790Z,14.17
2019-02-16T06:53:57.291Z,14.50
2019-02-16T06:56:27.226Z,12.43
2019-02-16T06:58:55.559Z,13.93
2019-02-16T07:01:24.131Z,14.70
2019-02-16T07:03:52.544Z,13.83
2019-02-16T07:06:21.256Z,14.77
2019-02-16T07:08:49.779Z,17.87
2019-02-16T07:11:18.147Z,17.87
2019-02-16T07:13:46.492Z,17.30
2019-02-16T07:16:31.801Z,19.20
2019-02-16T07:19:01.781Z,21.97
2019-02-16T07:21:30.077Z,26.42
2019-02-16T07:23:58.397Z,20.27
2019-02-16T07:26:26.709Z,17.37
2019-02-16T07:28:55.042Z,16.97
2019-02-16T07:31:23.569Z,17.20
2019-02-16T07:33:51.841Z,17.80
2019-02-16T07:36:22.086Z,22.17
2019-02-16T07:38:50.230Z,22.00
2019-02-16T07:41:18.825Z,20.77
2019-02-16T07:43:51.828Z,17.43
2019-02-16T07:46:38.120Z,18.77
2019-02-16T07:49:17.380Z,16.13
2019-02-16T07:51:47.324Z,16.37
2019-02-16T07:54:17.417Z,17.47
2019-02-16T07:56:50.444Z,15.37
2019-02-16T07:59:21.101Z,17.10
2019-02-16T08:01:54.163Z,15.17
2019-02-16T08:04:27.469Z,14.37
2019-02-16T08:07:14.046Z,14.00
2019-02-16T08:09:44.226Z,12.17
2019-02-16T08:12:30.545Z,12.53
2019-02-16T08:15:06.682Z,11.33
2019-02-16T08:17:39.475Z,13.93
2019-02-16T08:20:12.391Z,12.27
2019-02-16T08:22:42.579Z,15.53
2019-02-16T08:25:24.578Z,13.47
2019-02-16T08:27:54.784Z,13.57
2019-02-16T08:30:28.108Z,13.67
2019-02-16T08:33:03.935Z,13.67
2019-02-16T08:35:45.895Z,12.27
2019-02-16T08:38:21.843Z,11.30
2019-02-16T08:40:54.468Z,12.87
2019-02-16T08:43:24.794Z,12.87
2019-02-16T08:46:00.779Z,14.07
2019-02-16T08:48:33.744Z,14.10
2019-02-16T08:51:03.919Z,13.00
2019-02-16T08:53:49.583Z,13.43
2019-02-16T08:56:20.556Z,13.47
2019-02-16T08:59:09.128Z,13.60
2019-02-16T09:01:41.938Z,12.83
2019-02-16T09:04:20.948Z,13.73
2019-02-16T09:06:59.843Z,12.10
2019-02-16T09:09:38.914Z,13.07
2019-02-16T09:12:09.015Z,12.83
2019-02-16T09:14:45.015Z,11.67
2019-02-16T09:17:21.102Z,13.43
2019-02-16T09:20:12.065Z,12.87
2019-02-16T09:22:44.935Z,13.10
2019-02-16T09:25:17.894Z,12.73
2019-02-16T09:28:04.091Z,13.47
2019-02-16T09:30:52.148Z,12.90
2019-02-16T09:33:22.145Z,14.97
2019-02-16T09:35:55.094Z,11.90
2019-02-16T09:38:31.373Z,12.33
2019-02-16T09:41:18.083Z,12.07
2019-02-16T09:43:48.020Z,13.03
2019-02-16T09:46:21.105Z,12.73
2019-02-16T09:49:09.161Z,13.17
2019-02-16T09:51:41.802Z,12.13
2019-02-16T09:54:14.446Z,12.87
2019-02-16T09:56:49.992Z,10.73
2019-02-16T09:59:22.864Z,13.20
2019-02-16T10:02:01.940Z,13.27
2019-02-16T10:04:47.380Z,12.47
2019-02-16T10:07:30.536Z,12.63
2019-02-16T10:10:00.769Z,12.07
2019-02-16T10:12:33.940Z,11.33
2019-02-16T10:15:20.009Z,11.83
2019-02-16T10:18:08.157Z,12.03
2019-02-16T10:20:40.352Z,12.17
2019-02-16T10:23:16.050Z,12.43
2019-02-16T10:25:55.041Z,12.83
2019-02-16T10:28:28.105Z,11.50
2019-02-16T10:31:07.330Z,12.43
2019-02-16T10:33:37.281Z,12.67
2019-02-16T10:36:09.990Z,12.37
2019-02-16T10:38:46.061Z,12.77
2019-02-16T10:41:24.960Z,13.20
2019-02-16T10:43:55.152Z,13.00
2019-02-16T10:46:28.890Z,13.47
2019-02-16T10:49:01.769Z,14.17
2019-02-16T10:51:34.719Z,12.90
2019-02-16T10:54:07.451Z,13.53
2019-02-16T10:56:40.260Z,13.50
2019-02-16T10:59:25.761Z,13.57
2019-02-16T11:01:55.769Z,12.13
2019-02-16T11:04:38.575Z,14.17
2019-02-16T11:07:09.393Z,14.83
2019-02-16T11:09:45.361Z,13.83
2019-02-16T11:12:20.906Z,14.53
2019-02-16T11:14:53.558Z,14.53
2019-02-16T11:17:29.652Z,14.53
2019-02-16T11:20:06.276Z,13.60
2019-02-16T11:22:36.411Z,14.50
2019-02-16T11:25:22.198Z,13.67
2019-02-16T11:28:08.731Z,14.00
2019-02-16T11:30:47.721Z,14.57
2019-02-16T11:33:26.881Z,13.90
2019-02-16T11:35:59.663Z,14.43
2019-02-16T11:38:29.936Z,14.43
2019-02-16T11:41:00.192Z,14.23
2019-02-16T11:43:42.242Z,14.50
2019-02-16T11:46:24.550Z,14.67
2019-02-16T11:48:54.840Z,14.90
2019-02-16T11:51:27.837Z,14.73
2019-02-16T11:54:03.849Z,14.83
2019-02-16T11:56:33.805Z,15.33
2019-02-16T11:59:09.685Z,14.33
2019-02-16T12:01:40.841Z,15.87
2019-02-16T12:04:27.490Z,16.00
2019-02-16T12:06:57.542Z,15.83
2019-02-16T12:09:43.926Z,14.85
2019-02-16T12:12:20.233Z,14.23
2019-02-16T12:14:50.237Z,14.35
2019-02-16T12:17:32.223Z,12.67
2019-02-16T12:20:04.999Z,13.40
2019-02-16T12:22:35.110Z,13.57
2019-02-16T12:25:14.141Z,14.43
2019-02-16T12:28:02.392Z,14.47
2019-02-16T12:30:49.188Z,15.17
2019-02-16T12:33:19.377Z,13.80
2019-02-16T12:35:52.378Z,13.53
2019-02-16T12:38:25.742Z,16.33
2019-02-16T12:40:58.705Z,16.17
2019-02-16T12:43:37.898Z,15.77
2019-02-16T12:46:07.968Z,16.50
2019-02-16T12:48:42.088Z,16.23
2019-02-16T12:51:12.307Z,15.70
2019-02-16T12:53:42.359Z,17.07
2019-02-16T12:56:18.005Z,16.93
2019-02-16T12:58:47.925Z,16.97
2019-02-16T13:01:24.133Z,16.57
2019-02-16T13:03:54.098Z,16.45
2019-02-16T13:06:39.312Z,17.27
2019-02-16T13:09:15.822Z,18.82
2019-02-16T13:11:58.086Z,19.07
2019-02-16T13:14:28.028Z,17.83
2019-02-16T13:17:03.920Z,17.90
2019-02-16T13:19:34.089Z,16.63
2019-02-16T13:22:04.174Z,17.03
2019-02-16T13:24:34.145Z,17.23
2019-02-16T13:27:04.306Z,16.37
2019-02-16T13:29:34.489Z,16.97
2019-02-16T13:32:13.738Z,17.00
2019-02-16T13:34:52.958Z,16.90
2019-02-16T13:37:24.130Z,15.95
2019-02-16T13:39:57.146Z,15.80
2019-02-16T13:42:30.249Z,17.35
2019-02-16T13:45:03.488Z,16.42
2019-02-16T13:47:33.674Z,17.70
2019-02-16T13:50:09.842Z,17.50
2019-02-16T13:52:42.782Z,16.93
2019-02-16T13:55:36.140Z,17.03
2019-02-16T13:58:08.285Z,18.27
2019-02-16T14:00:41.323Z,16.87
2019-02-16T14:03:29.459Z,18.53
2019-02-16T14:06:17.681Z,17.00
2019-02-16T14:08:47.817Z,17.67
2019-02-16T14:11:21.074Z,18.47
2019-02-16T14:13:52.464Z,17.70
2019-02-16T14:16:25.208Z,17.57
2019-02-16T14:18:53.610Z,17.67
2019-02-16T14:21:21.916Z,17.60
2019-02-16T14:23:50.372Z,18.27
2019-02-16T14:26:18.881Z,18.90
2019-02-16T14:28:48.556Z,17.57
2019-02-16T14:31:18.750Z,18.03
2019-02-16T14:33:47.171Z,16.87
2019-02-16T14:36:15.692Z,18.30
2019-02-16T14:38:48.067Z,17.77
2019-02-16T14:41:16.482Z,16.60
2019-02-16T14:43:44.807Z,17.80
2019-02-16T14:46:13.471Z,22.73
2019-02-16T14:48:41.849Z,15.60
2019-02-16T14:51:10.306Z,16.63
2019-02-16T14:53:38.674Z,19.03
2019-02-16T14:56:07.048Z,18.67
2019-02-16T14:58:35.643Z,16.93
2019-02-16T15:01:04.210Z,16.70
2019-02-16T15:03:32.528Z,16.93
2019-02-16T15:06:00.892Z,17.20
2019-02-16T15:08:29.670Z,18.13
2019-02-16T15:10:58.124Z,17.07
2019-02-16T15:13:26.460Z,16.03
2019-02-16T15:15:55.308Z,17.57
2019-02-16T15:18:24.472Z,16.43
2019-02-16T15:20:52.909Z,16.30
2019-02-16T15:23:21.506Z,19.07
2019-02-16T15:25:49.804Z,21.73
2019-02-16T15:28:18.247Z,18.20
2019-02-16T15:30:46.692Z,19.03
2019-02-16T15:33:15.081Z,17.53
2019-02-16T15:35:43.429Z,17.93
2019-02-16T15:38:11.990Z,17.47
2019-02-16T15:40:40.320Z,17.77
2019-02-16T15:43:08.933Z,17.27
2019-02-16T15:45:37.258Z,18.43
2019-02-16T15:48:05.707Z,18.50
2019-02-16T15:50:34.047Z,18.60
2019-02-16T15:53:02.365Z,17.53
2019-02-16T15:55:33.557Z,18.33
2019-02-16T15:58:01.935Z,18.13
2019-02-16T16:00:30.559Z,19.30
2019-02-16T16:02:59.680Z,18.90
2019-02-16T16:05:28.404Z,18.77
2019-02-16T16:08:10.633Z,18.83
2019-02-16T16:10:53.033Z,19.07
2019-02-16T16:13:38.524Z,20.97
2019-02-16T16:16:14.351Z,19.50
2019-02-16T16:18:53.161Z,20.50
2019-02-16T16:21:23.178Z,20.73
